Cadence Design Systems Speed Test Log

Minimum

Min 1.5 Mbps : 0.76 Mbps

Median

Median 21.17 Mbps : 10.77 Mbps

Maximum

Max 108.23 Mbps : 39.02 Mbps

Minimum

Minimum: 1.5 Mbps : 0.76 Mbps

Median

Median: 21.17 Mbps : 10.77 Mbps

Maximum

Maximum: 108.23 Mbps : 39.02 Mbps
Averages    
1 to 25 of 9763** for Host Cadence Design
Time
Speed Size    User ConnectID  TestID   
6/8/22 12:25:44 pm 13.6 Mbps 1.7 MB/s 18.4 MB14502127523 US kAalVKG66 
6/8/22 12:25:28 pm 108.23 Mbps 13.53 MB/s 89.4 MB14502127523 US YbYTDhDj_ 
1/7/21 2:05:10 pm 42.5 Mbps 5.31 MB/s 87.4 MB1698521611432 BQvl9YmLn 
1/7/21 2:04:48 pm 51.55 Mbps 6.44 MB/s 87.4 MB1698521611432 ~2eSYbRVr 
1/7/21 2:04:11 pm 50.71 Mbps 6.34 MB/s 87.4 MB1698521611432 xm6aNIUz5 
11/20/20 2:52:12 pm 89.18 Mbps 11.15 MB/s 72 MB14502127523 US avaWSqMaB 
10/22/20 1:10:14 am 28.53 Mbps 3.57 MB/s 24.5 MB14502127523 US grZDQdMnC 
10/6/20 9:48:40 am 3.2 Mbps 0.4 MB/s 2.5 MB1698521611432 rd-hOShBi 
10/6/20 9:48:12 am 0.94 Mbps 0.12 MB/s 1.2 MB1698521611432 75jHuEkFj 
10/6/20 9:47:40 am 4.07 Mbps 0.51 MB/s 2.3 MB1698521611432 X3M~CLhzu 
10/5/20 7:34:46 pm 39.02 Mbps 4.88 MB/s 23.9 MB14502127523 US lGWkFJfrC 
10/5/20 7:34:22 pm 16.25 Mbps 2.03 MB/s 89.4 MB14502127523 US i6XqSp~33 
9/14/20 4:51:36 pm 11.74 Mbps 1.47 MB/s 6.5 MB14502127523 US mjPEodB61 
3/6/20 1:34:18 am 10.94 Mbps 1.37 MB/s 6.1 MB14502127523 US GFoha2EoV 
3/6/20 1:34:10 am 13.85 Mbps 1.73 MB/s 51.8 MB14502127523 US Pll7wfGsY 
2/5/20 10:11:29 pm 41.46 Mbps 5.18 MB/s 86.9 MB14502127523 US 3WpR_0~~2 
1/17/20 9:27:09 am 22.35 Mbps 2.79 MB/s 58.5 MB14502127523 US LBrMaBRnW 
1/17/20 9:25:08 am 16.93 Mbps 2.12 MB/s 58.5 MB14502127523 US B7Z7GpX4n 
9/5/19 4:54:12 pm 10.6 Mbps 1.33 MB/s 6.2 MB14502127523 US _WO3dyvf6 
9/5/19 4:54:03 pm 11.74 Mbps 1.47 MB/s 23.5 MB14502127523 US 5_Qg~JArS 
9/5/19 4:27:20 pm 7.62 Mbps 0.95 MB/s 6.1 MB14502127523 US 5hMd1f7ZO 
9/5/19 4:27:10 pm 5.36 Mbps 0.67 MB/s 6.6 MB14502127523 US oROfyOvik 
8/3/19 6:17:32 pm 0.76 Mbps 0.1 MB/s 1.3 MB14502127523 US 8~Cvx8Qht 
8/3/19 6:17:14 pm 1.5 Mbps 0.19 MB/s 2.4 MB14502127523 US AA8DOhAN1 
7/31/19 3:14:52 pm 19.99 Mbps 2.5 MB/s 21.5 MB1698521611432 DE Kr~pY0fVJ 
  
** Partial Results: The most recent results have been displayed. Results over 50 Mbps are highlighted.
Graphed results calculation
Displaying Internet Speed Test results for Host Cadence Design Systems